createdAt,value
2022-09-23T00:01:19.164Z,6.10
2022-09-23T00:03:47.114Z,6.10
2022-09-23T00:06:24.357Z,6.20
2022-09-23T00:08:52.670Z,6.10
2022-09-23T00:11:25.705Z,6.00
2022-09-23T00:13:59.747Z,5.90
2022-09-23T00:16:35.131Z,5.90
2022-09-23T00:19:05.334Z,5.90
2022-09-23T00:21:32.632Z,5.90
2022-09-23T00:23:59.744Z,5.90
2022-09-23T00:26:27.606Z,5.90
2022-09-23T00:28:54.876Z,5.80
2022-09-23T00:31:27.449Z,5.80
2022-09-23T00:34:00.483Z,5.80
2022-09-23T00:36:29.059Z,5.80
2022-09-23T00:38:56.275Z,5.80
2022-09-23T00:41:24.007Z,5.80
2022-09-23T00:43:57.824Z,5.80
2022-09-23T00:46:39.665Z,5.80
2022-09-23T00:49:11.747Z,5.90
2022-09-23T00:51:50.181Z,5.90
2022-09-23T00:54:18.495Z,5.90
2022-09-23T00:56:45.577Z,5.90
2022-09-23T00:59:13.821Z,5.90
2022-09-23T01:01:41.037Z,5.90
2022-09-23T01:04:08.570Z,5.90
2022-09-23T01:06:35.995Z,5.90
2022-09-23T01:09:03.121Z,5.90
2022-09-23T01:11:55.112Z,5.90
2022-09-23T01:14:48.866Z,5.80
2022-09-23T01:17:42.451Z,5.80
2022-09-23T01:20:39.477Z,5.80
2022-09-23T01:23:59.606Z,5.80
2022-09-23T01:26:46.208Z,5.80
2022-09-23T01:29:43.267Z,5.80
2022-09-23T01:32:48.127Z,5.80
2022-09-23T01:35:30.287Z,5.70
2022-09-23T01:38:02.974Z,5.80
2022-09-23T01:41:00.520Z,5.80
2022-09-23T01:43:46.100Z,5.80
2022-09-23T01:46:46.134Z,5.80
2022-09-23T01:49:28.619Z,5.80
2022-09-23T01:52:22.681Z,5.70
2022-09-23T01:55:13.086Z,5.80
2022-09-23T01:57:58.268Z,5.80
2022-09-23T02:00:27.799Z,5.80
2022-09-23T02:03:06.974Z,5.70
2022-09-23T02:05:38.228Z,5.70
2022-09-23T02:09:01.304Z,5.70
2022-09-23T02:11:29.339Z,5.70
2022-09-23T02:14:15.651Z,5.70
2022-09-23T02:16:51.743Z,5.70
2022-09-23T02:19:27.146Z,5.70
2022-09-23T02:22:23.607Z,5.60
2022-09-23T02:24:50.694Z,5.60
2022-09-23T02:27:38.600Z,5.60
2022-09-23T02:30:17.872Z,5.60
2022-09-23T02:33:12.087Z,5.60
2022-09-23T02:35:59.850Z,5.60
2022-09-23T02:38:45.812Z,5.60
2022-09-23T02:41:23.846Z,5.60
2022-09-23T02:43:53.882Z,5.50
2022-09-23T02:46:22.181Z,5.50
2022-09-23T02:48:56.863Z,5.50
2022-09-23T02:51:28.860Z,5.50
2022-09-23T02:53:59.454Z,5.50
2022-09-23T02:56:26.380Z,5.50
2022-09-23T02:58:54.675Z,5.40
2022-09-23T03:01:42.143Z,5.40
2022-09-23T03:05:05.768Z,5.30
2022-09-23T03:08:07.825Z,5.30
2022-09-23T03:11:04.384Z,5.30
2022-09-23T03:14:17.814Z,5.30
2022-09-23T03:17:00.457Z,5.30
2022-09-23T03:19:54.070Z,5.30
2022-09-23T03:22:47.330Z,5.30
2022-09-23T03:25:19.294Z,5.30
2022-09-23T03:27:46.212Z,5.20
2022-09-23T03:30:13.990Z,5.20
2022-09-23T03:32:47.170Z,5.20
2022-09-23T03:35:14.485Z,5.10
2022-09-23T03:38:09.366Z,5.00
2022-09-23T03:40:43.048Z,5.00
2022-09-23T03:43:13.356Z,4.90
2022-09-23T03:45:41.747Z,4.80
2022-09-23T03:48:11.668Z,4.80
2022-09-23T03:50:39.282Z,4.70
2022-09-23T03:53:06.866Z,4.70
2022-09-23T03:55:34.800Z,4.70
2022-09-23T03:58:04.859Z,4.70
2022-09-23T04:00:31.807Z,4.70
2022-09-23T04:02:58.646Z,4.60
2022-09-23T04:05:25.561Z,4.70
2022-09-23T04:07:52.860Z,4.70
2022-09-23T04:10:19.777Z,4.70
2022-09-23T04:12:46.678Z,4.70
2022-09-23T04:15:13.457Z,4.80
2022-09-23T04:17:40.395Z,4.80
2022-09-23T04:20:07.756Z,4.90
2022-09-23T04:22:35.046Z,4.90
2022-09-23T04:25:02.312Z,5.00
2022-09-23T04:27:30.591Z,5.00
2022-09-23T04:29:59.977Z,5.00
2022-09-23T04:32:26.872Z,5.10
2022-09-23T04:34:54.843Z,5.10
2022-09-23T04:37:21.807Z,5.10
2022-09-23T04:39:48.731Z,5.00
2022-09-23T04:42:15.517Z,5.10
2022-09-23T04:44:42.594Z,5.00
2022-09-23T04:47:09.394Z,5.00
2022-09-23T04:49:36.332Z,5.00
2022-09-23T04:52:05.378Z,5.00
2022-09-23T04:54:33.004Z,4.90
2022-09-23T04:57:00.087Z,4.90
2022-09-23T04:59:27.022Z,4.90
2022-09-23T05:01:54.742Z,5.00
2022-09-23T05:04:21.616Z,5.00
2022-09-23T05:06:49.261Z,5.00
2022-09-23T05:09:17.653Z,5.00
2022-09-23T05:11:45.680Z,5.00
2022-09-23T05:14:13.131Z,5.00
2022-09-23T05:16:40.475Z,5.00
2022-09-23T05:19:07.554Z,5.00
2022-09-23T05:21:35.205Z,5.00
2022-09-23T05:24:02.494Z,5.00
2022-09-23T05:26:31.699Z,5.00
2022-09-23T05:28:59.595Z,5.00
2022-09-23T05:31:29.401Z,5.10
2022-09-23T05:34:03.458Z,5.10
2022-09-23T05:36:37.986Z,5.10
2022-09-23T05:39:07.607Z,5.10
2022-09-23T05:41:34.705Z,5.20
2022-09-23T05:44:01.977Z,5.20
2022-09-23T05:46:31.013Z,5.20
2022-09-23T05:49:02.571Z,5.30
2022-09-23T05:51:31.720Z,5.30
2022-09-23T05:54:00.381Z,5.40
2022-09-23T05:56:28.490Z,5.40
2022-09-23T05:58:58.659Z,5.40
2022-09-23T06:01:32.184Z,5.50
2022-09-23T06:04:00.316Z,5.50
2022-09-23T06:06:39.889Z,5.60
2022-09-23T06:09:11.208Z,5.60
2022-09-23T06:11:38.108Z,5.70
2022-09-23T06:14:05.553Z,5.80
2022-09-23T06:16:34.910Z,5.90
2022-09-23T06:19:06.162Z,5.80
2022-09-23T06:21:37.563Z,5.90
2022-09-23T06:24:06.344Z,6.00
2022-09-23T06:26:37.582Z,6.00
2022-09-23T06:29:12.004Z,6.00
2022-09-23T06:31:41.117Z,6.10
2022-09-23T06:34:14.645Z,6.00
2022-09-23T06:36:46.337Z,6.10
2022-09-23T06:39:17.061Z,6.20
2022-09-23T06:41:45.262Z,6.30
2022-09-23T06:44:15.722Z,6.30
2022-09-23T06:46:42.967Z,6.40
2022-09-23T06:49:12.460Z,6.40
2022-09-23T06:51:40.153Z,6.50
2022-09-23T06:54:07.437Z,6.60
2022-09-23T06:56:38.768Z,6.70
2022-09-23T06:59:09.899Z,6.80
2022-09-23T07:01:36.772Z,6.90
2022-09-23T07:04:03.781Z,7.10
2022-09-23T07:06:30.705Z,7.20
2022-09-23T07:08:57.618Z,7.30
2022-09-23T07:11:24.621Z,7.40
2022-09-23T07:13:51.581Z,7.50
2022-09-23T07:16:18.752Z,7.60
2022-09-23T07:18:45.737Z,7.80
2022-09-23T07:21:18.439Z,8.00
2022-09-23T07:23:48.347Z,8.20
2022-09-23T07:26:16.942Z,8.30
2022-09-23T07:28:44.067Z,8.40
2022-09-23T07:31:16.256Z,8.50
2022-09-23T07:33:44.918Z,8.60
2022-09-23T07:36:18.930Z,8.60
2022-09-23T07:38:47.378Z,8.70
2022-09-23T07:41:18.070Z,8.70
2022-09-23T07:43:46.168Z,8.90
2022-09-23T07:46:17.431Z,9.10
2022-09-23T07:48:45.895Z,9.30
2022-09-23T07:51:23.965Z,9.70
2022-09-23T07:53:52.531Z,10.10
2022-09-23T07:56:22.589Z,10.30
2022-09-23T07:59:03.842Z,10.60
2022-09-23T08:01:40.084Z,11.00
2022-09-23T08:04:14.447Z,11.60
2022-09-23T08:06:48.581Z,12.30
2022-09-23T08:09:18.124Z,13.00
2022-09-23T08:11:45.703Z,13.70
2022-09-23T08:14:15.584Z,14.20
2022-09-23T08:16:44.757Z,14.90
2022-09-23T08:19:15.521Z,15.60
2022-09-23T08:21:43.055Z,16.40
2022-09-23T08:24:16.570Z,16.90
2022-09-23T08:26:45.211Z,16.90
2022-09-23T08:29:17.662Z,16.70
2022-09-23T08:31:44.793Z,16.80
2022-09-23T08:34:12.268Z,16.70
2022-09-23T08:36:39.381Z,16.70
2022-09-23T08:39:07.011Z,16.80
2022-09-23T08:42:07.822Z,16.80
2022-09-23T08:44:57.607Z,16.60
2022-09-23T08:47:27.981Z,16.40
2022-09-23T08:50:12.544Z,16.30
2022-09-23T08:52:55.900Z,16.30
2022-09-23T08:55:50.870Z,16.60
2022-09-23T08:59:10.493Z,16.70
2022-09-23T09:01:53.959Z,16.70
2022-09-23T09:04:46.221Z,17.30
2022-09-23T09:07:38.079Z,17.50
2022-09-23T09:10:15.031Z,17.80
2022-09-23T09:13:11.112Z,18.10
2022-09-23T09:16:27.276Z,18.20
2022-09-23T09:19:07.353Z,18.10
2022-09-23T09:21:41.121Z,18.40
2022-09-23T09:24:32.293Z,18.60
2022-09-23T09:27:01.782Z,18.90
2022-09-23T09:29:38.847Z,18.60
2022-09-23T09:33:03.312Z,18.50
2022-09-23T09:35:40.800Z,18.50
2022-09-23T09:38:08.153Z,18.80
2022-09-23T09:40:35.191Z,19.00
2022-09-23T09:43:05.887Z,19.60
2022-09-23T09:46:08.582Z,19.80
2022-09-23T09:48:41.988Z,19.50
2022-09-23T09:51:23.316Z,19.30
2022-09-23T09:53:52.591Z,19.10
2022-09-23T09:56:42.179Z,18.70
2022-09-23T09:59:12.197Z,18.40
2022-09-23T10:04:25.005Z,17.90
2022-09-23T10:07:09.801Z,17.70
2022-09-23T10:09:38.840Z,17.60
2022-09-23T10:12:18.577Z,17.30
2022-09-23T10:14:51.574Z,17.20
2022-09-23T10:17:24.704Z,17.10
2022-09-23T10:20:05.367Z,17.30
2022-09-23T10:22:39.691Z,17.40
2022-09-23T10:25:19.769Z,17.40
2022-09-23T10:27:47.017Z,17.50
2022-09-23T10:30:23.996Z,17.40
2022-09-23T10:32:55.009Z,17.40
2022-09-23T10:35:24.957Z,17.30
2022-09-23T10:37:54.923Z,17.30
2022-09-23T10:40:49.336Z,17.60
2022-09-23T10:44:11.720Z,17.70
2022-09-23T10:47:29.667Z,17.60
2022-09-23T10:50:11.895Z,17.80
2022-09-23T10:53:23.134Z,17.80
2022-09-23T10:56:37.230Z,18.00
2022-09-23T10:59:49.674Z,18.00
2022-09-23T11:02:25.279Z,18.10
2022-09-23T11:05:15.215Z,18.20
2022-09-23T11:07:55.515Z,18.20
2022-09-23T11:10:52.986Z,18.40
2022-09-23T11:13:54.710Z,18.40
2022-09-23T11:16:43.309Z,18.50
2022-09-23T11:19:34.951Z,18.60
2022-09-23T11:22:16.543Z,18.40
2022-09-23T11:25:01.377Z,18.30
2022-09-23T11:27:59.257Z,18.20
2022-09-23T11:30:43.712Z,18.30
2022-09-23T11:33:30.862Z,18.30
2022-09-23T11:36:12.270Z,18.20
2022-09-23T11:38:49.042Z,18.10
2022-09-23T11:41:25.881Z,18.10
2022-09-23T11:44:13.261Z,18.30
2022-09-23T11:46:50.788Z,18.30
2022-09-23T11:49:24.791Z,18.40
2022-09-23T11:52:19.556Z,18.30
2022-09-23T11:55:32.766Z,18.40
2022-09-23T11:58:22.192Z,18.60
2022-09-23T12:01:37.358Z,18.70
2022-09-23T12:04:24.099Z,19.00
2022-09-23T12:07:19.217Z,19.00
2022-09-23T12:10:08.774Z,19.00
2022-09-23T12:13:16.153Z,18.90
2022-09-23T12:16:30.362Z,18.80
2022-09-23T12:19:04.519Z,19.00
2022-09-23T12:21:59.705Z,19.20
2022-09-23T12:25:23.996Z,19.10
2022-09-23T12:27:55.311Z,18.80
2022-09-23T12:30:29.680Z,18.80
2022-09-23T12:33:27.503Z,18.80
2022-09-23T12:36:07.184Z,19.10
2022-09-23T12:38:53.535Z,19.20
2022-09-23T12:41:23.992Z,19.10
2022-09-23T12:43:57.002Z,19.10
2022-09-23T12:46:27.408Z,19.10
2022-09-23T12:49:00.616Z,19.40
2022-09-23T12:51:33.751Z,19.80
2022-09-23T12:54:03.652Z,20.10
2022-09-23T12:56:36.443Z,20.10
2022-09-23T12:59:28.038Z,20.10
2022-09-23T13:04:54.030Z,21.50
2022-09-23T13:07:32.202Z,22.20
2022-09-23T13:10:22.225Z,21.70
2022-09-23T13:12:49.996Z,21.30
2022-09-23T13:15:30.316Z,21.00
2022-09-23T13:18:18.946Z,21.30
2022-09-23T13:20:48.316Z,21.50
2022-09-23T13:23:25.101Z,21.20
2022-09-23T13:25:58.437Z,20.70
2022-09-23T13:28:34.323Z,20.70
2022-09-23T13:31:10.973Z,20.70
2022-09-23T13:36:16.789Z,22.80
2022-09-23T13:38:46.033Z,23.40
2022-09-23T13:41:23.715Z,23.60
2022-09-23T13:43:55.938Z,23.50
2022-09-23T13:46:38.563Z,23.90
2022-09-23T13:49:06.001Z,24.80
2022-09-23T13:51:37.137Z,25.20
2022-09-23T13:54:05.182Z,25.60
2022-09-23T13:56:35.423Z,26.90
2022-09-23T13:59:36.342Z,27.70
2022-09-23T14:04:40.572Z,26.10
2022-09-23T14:07:09.939Z,26.30
2022-09-23T14:09:41.584Z,26.10
2022-09-23T14:12:09.967Z,25.20
2022-09-23T14:14:40.493Z,24.70
2022-09-23T14:17:09.062Z,23.90
2022-09-23T14:19:36.782Z,23.40
2022-09-23T14:22:03.874Z,23.10
2022-09-23T14:24:35.554Z,22.40
2022-09-23T14:27:15.758Z,21.70
2022-09-23T14:29:45.859Z,20.90
2022-09-23T14:32:21.121Z,20.60
2022-09-23T14:35:00.511Z,20.40
2022-09-23T14:37:59.234Z,20.10
2022-09-23T14:40:52.380Z,19.70
2022-09-23T14:43:27.902Z,19.50
2022-09-23T14:48:33.794Z,19.00
2022-09-23T14:51:04.464Z,19.00
2022-09-23T14:53:42.537Z,18.80
2022-09-23T14:56:22.242Z,18.60
2022-09-23T14:59:00.623Z,18.50
2022-09-23T15:01:33.671Z,18.40
2022-09-23T15:04:22.342Z,18.30
2022-09-23T15:07:03.092Z,18.20
2022-09-23T15:09:39.812Z,18.10
2022-09-23T15:12:13.803Z,18.00
2022-09-23T15:14:46.462Z,18.00
2022-09-23T15:17:33.265Z,18.10
2022-09-23T15:20:08.674Z,18.40
2022-09-23T15:22:48.550Z,18.50
2022-09-23T15:25:40.122Z,18.40
2022-09-23T15:28:12.814Z,18.40
2022-09-23T15:30:40.156Z,18.30
2022-09-23T15:33:09.468Z,18.20
2022-09-23T15:35:36.895Z,18.30
2022-09-23T15:38:03.886Z,18.30
2022-09-23T15:40:34.013Z,18.30
2022-09-23T15:43:20.231Z,18.20
2022-09-23T15:45:53.320Z,18.20
2022-09-23T15:48:28.812Z,18.00
2022-09-23T15:50:55.797Z,17.90
2022-09-23T15:53:27.167Z,17.90
2022-09-23T15:55:54.335Z,17.90
2022-09-23T15:58:23.505Z,18.00
2022-09-23T16:00:56.852Z,17.70
2022-09-23T16:03:28.493Z,17.50
2022-09-23T16:06:00.479Z,17.50
2022-09-23T16:08:28.752Z,17.40
2022-09-23T16:10:56.454Z,17.20
2022-09-23T16:13:23.424Z,17.20
2022-09-23T16:15:50.399Z,17.20
2022-09-23T16:18:24.784Z,17.10
2022-09-23T16:20:51.780Z,17.10
2022-09-23T16:23:39.986Z,17.10
2022-09-23T16:26:29.587Z,17.00
2022-09-23T16:28:58.167Z,16.90
2022-09-23T16:31:29.452Z,16.70
2022-09-23T16:33:56.599Z,16.40
2022-09-23T16:36:34.429Z,16.20
2022-09-23T16:39:07.739Z,16.20
2022-09-23T16:41:34.726Z,16.10
2022-09-23T16:44:04.729Z,15.90
2022-09-23T16:46:32.481Z,15.80
2022-09-23T16:49:00.428Z,15.60
2022-09-23T16:51:32.179Z,15.30
2022-09-23T16:54:00.044Z,15.20
2022-09-23T16:56:29.232Z,15.10
2022-09-23T16:58:57.029Z,15.10
2022-09-23T17:01:46.424Z,15.10
2022-09-23T17:04:15.956Z,15.00
2022-09-23T17:06:52.030Z,15.00
2022-09-23T17:09:24.890Z,15.00
2022-09-23T17:12:15.568Z,14.90
2022-09-23T17:14:43.112Z,14.60
2022-09-23T17:17:10.018Z,14.60
2022-09-23T17:19:41.275Z,14.50
2022-09-23T17:22:08.212Z,14.40
2022-09-23T17:24:35.097Z,14.30
2022-09-23T17:27:02.106Z,14.20
2022-09-23T17:29:29.147Z,14.10
2022-09-23T17:31:56.230Z,13.90
2022-09-23T17:34:24.095Z,13.80
2022-09-23T17:36:51.063Z,13.80
2022-09-23T17:39:18.052Z,13.70
2022-09-23T17:41:45.621Z,13.70
2022-09-23T17:44:12.798Z,13.70
2022-09-23T17:46:39.643Z,13.70
2022-09-23T17:49:06.801Z,13.60
2022-09-23T17:51:33.882Z,13.60
2022-09-23T17:54:00.783Z,13.50
2022-09-23T17:56:29.952Z,13.40
2022-09-23T17:59:02.430Z,13.40
2022-09-23T18:01:29.841Z,13.20
2022-09-23T18:04:05.640Z,13.20
2022-09-23T18:06:35.879Z,13.10
2022-09-23T18:09:07.073Z,13.00
2022-09-23T18:11:40.537Z,13.00
2022-09-23T18:14:22.428Z,12.90
2022-09-23T18:16:53.944Z,12.80
2022-09-23T18:19:23.485Z,12.70
2022-09-23T18:21:58.589Z,12.70
2022-09-23T18:24:33.750Z,12.70
2022-09-23T18:27:01.487Z,12.70
2022-09-23T18:29:28.655Z,12.80
2022-09-23T18:31:56.013Z,12.80
2022-09-23T18:34:23.628Z,12.70
2022-09-23T18:36:50.788Z,12.70
2022-09-23T18:39:17.612Z,12.60
2022-09-23T18:41:44.418Z,12.50
2022-09-23T18:44:11.918Z,12.40
2022-09-23T18:46:38.787Z,12.40
2022-09-23T18:49:24.644Z,12.40
2022-09-23T18:51:57.521Z,12.30
2022-09-23T18:54:26.018Z,12.20
2022-09-23T18:56:53.414Z,12.10
2022-09-23T18:59:25.873Z,12.00
2022-09-23T19:01:56.611Z,12.00
2022-09-23T19:04:25.608Z,12.00
2022-09-23T19:06:54.868Z,11.90
2022-09-23T19:09:21.909Z,11.90
2022-09-23T19:11:52.326Z,11.90
2022-09-23T19:14:19.935Z,11.80
2022-09-23T19:16:49.171Z,11.80
2022-09-23T19:19:16.402Z,11.80
2022-09-23T19:21:43.232Z,11.80
2022-09-23T19:24:15.587Z,11.70
2022-09-23T19:26:44.099Z,11.70
2022-09-23T19:29:19.338Z,11.60
2022-09-23T19:31:46.399Z,11.60
2022-09-23T19:34:16.514Z,11.50
2022-09-23T19:36:46.535Z,11.40
2022-09-23T19:39:20.222Z,11.40
2022-09-23T19:41:47.608Z,11.40
2022-09-23T19:44:15.340Z,11.30
2022-09-23T19:46:45.350Z,11.30
2022-09-23T19:49:12.994Z,11.30
2022-09-23T19:51:40.228Z,11.30
2022-09-23T19:54:08.213Z,11.30
2022-09-23T19:56:36.029Z,11.30
2022-09-23T19:59:03.196Z,11.40
2022-09-23T20:01:31.931Z,11.40
2022-09-23T20:03:59.481Z,11.40
2022-09-23T20:06:30.929Z,11.30
2022-09-23T20:09:01.177Z,11.30
2022-09-23T20:11:29.227Z,11.30
2022-09-23T20:14:01.609Z,11.30
2022-09-23T20:16:32.872Z,11.30
2022-09-23T20:19:01.296Z,11.30
2022-09-23T20:21:29.600Z,11.20
2022-09-23T20:23:57.839Z,11.30
2022-09-23T20:26:43.653Z,11.30
2022-09-23T20:29:11.280Z,11.40
2022-09-23T20:31:40.798Z,11.30
2022-09-23T20:34:09.096Z,11.20
2022-09-23T20:36:36.195Z,11.20
2022-09-23T20:39:06.043Z,11.20
2022-09-23T20:41:37.130Z,11.20
2022-09-23T20:44:12.598Z,11.30
2022-09-23T20:46:45.464Z,11.20
2022-09-23T20:49:15.206Z,11.20
2022-09-23T20:51:42.109Z,11.10
2022-09-23T20:54:09.095Z,11.10
2022-09-23T20:56:35.988Z,11.00
2022-09-23T20:59:05.161Z,11.00
2022-09-23T21:01:37.002Z,11.00
2022-09-23T21:04:05.848Z,11.00
2022-09-23T21:06:35.912Z,11.10
2022-09-23T21:09:04.339Z,11.10
2022-09-23T21:11:32.341Z,11.00
2022-09-23T21:14:01.311Z,11.00
2022-09-23T21:16:28.523Z,11.00
2022-09-23T21:18:55.646Z,11.00
2022-09-23T21:21:22.680Z,11.10
2022-09-23T21:23:50.502Z,11.10
2022-09-23T21:26:28.014Z,11.10
2022-09-23T21:29:00.995Z,11.10
2022-09-23T21:31:32.185Z,11.10
2022-09-23T21:34:08.106Z,11.00
2022-09-23T21:36:37.779Z,11.00
2022-09-23T21:39:10.554Z,10.90
2022-09-23T21:41:38.552Z,11.00
2022-09-23T21:44:06.831Z,11.00
2022-09-23T21:46:34.374Z,11.10
2022-09-23T21:49:03.591Z,11.20
2022-09-23T21:51:40.467Z,11.20
2022-09-23T21:54:14.443Z,11.10
2022-09-23T21:56:42.446Z,11.10
2022-09-23T21:59:09.974Z,11.10
2022-09-23T22:01:41.602Z,11.10
2022-09-23T22:04:17.119Z,11.10
2022-09-23T22:06:45.271Z,11.10
2022-09-23T22:09:16.928Z,11.20
2022-09-23T22:12:02.807Z,11.20
2022-09-23T22:14:31.334Z,11.20
2022-09-23T22:17:03.802Z,11.10
2022-09-23T22:19:35.508Z,11.00
2022-09-23T22:22:09.722Z,11.00
2022-09-23T22:24:36.667Z,11.00
2022-09-23T22:27:03.735Z,11.00
2022-09-23T22:29:48.864Z,11.00
2022-09-23T22:32:34.144Z,11.00
2022-09-23T22:35:01.389Z,11.00
2022-09-23T22:37:35.316Z,10.90
2022-09-23T22:40:08.497Z,10.80
2022-09-23T22:42:36.496Z,10.70
2022-09-23T22:45:06.041Z,10.70
2022-09-23T22:47:37.074Z,10.50
2022-09-23T22:50:06.983Z,10.50
2022-09-23T22:52:35.006Z,10.50
2022-09-23T22:55:03.523Z,10.50
2022-09-23T22:57:31.460Z,10.50
2022-09-23T22:59:58.401Z,10.60
2022-09-23T23:02:25.390Z,10.60
2022-09-23T23:04:52.418Z,10.60
2022-09-23T23:07:21.285Z,10.50
2022-09-23T23:09:52.420Z,10.40
2022-09-23T23:12:20.389Z,10.40
2022-09-23T23:14:49.086Z,10.30
2022-09-23T23:17:17.171Z,10.30
2022-09-23T23:19:44.140Z,10.30
2022-09-23T23:22:11.126Z,10.20
2022-09-23T23:24:38.014Z,10.20
2022-09-23T23:27:04.969Z,10.10
2022-09-23T23:29:31.932Z,10.10
2022-09-23T23:31:58.960Z,10.00
2022-09-23T23:34:25.941Z,10.10
2022-09-23T23:36:56.419Z,10.00
2022-09-23T23:39:25.146Z,10.00
2022-09-23T23:41:57.463Z,9.90
2022-09-23T23:44:26.710Z,9.90
2022-09-23T23:46:54.541Z,9.90
2022-09-23T23:49:21.860Z,9.90
2022-09-23T23:51:49.470Z,9.80
2022-09-23T23:54:16.697Z,9.80
2022-09-23T23:56:43.770Z,9.80
2022-09-23T23:59:11.259Z,9.80
